Time;durP1;ratioP1;P1;durP2;ratioP2;P2;SDS_P1;SDS_P2;PMS_P1;PMS_P2;Temp;Humidity;BMP_temperature;BMP_pressure;BME280_temperature;BME280_humidity;BME280_pressure;Samples;Min_cycle;Max_cycle;Signal;HPM_P1;HPM_P2
2021/03/08 00:00:20;;;;;;;26.08;16.40;;;;;;;4.91;100.00;101393.50;4897671;29;20526;-75
2021/03/08 00:03:07;;;;;;;28.85;17.70;;;;;;;4.70;100.00;101394.00;4897885;29;20064;-73
2021/03/08 00:05:53;;;;;;;30.85;18.05;;;;;;;5.22;100.00;101390.50;4898062;29;20047;-73
2021/03/08 00:08:39;;;;;;;29.55;18.30;;;;;;;5.23;100.00;101390.53;4900051;29;20040;-74
2021/03/08 00:11:25;;;;;;;28.20;17.25;;;;;;;5.26;100.00;101394.88;4897639;29;20032;-74
2021/03/08 00:14:10;;;;;;;25.98;17.30;;;;;;;5.02;100.00;101377.22;4897996;29;20062;-74
2021/03/08 00:16:56;;;;;;;27.50;17.40;;;;;;;5.02;100.00;101381.53;4900923;29;20039;-74
2021/03/08 00:19:42;;;;;;;30.05;18.63;;;;;;;4.87;100.00;101374.38;4889373;29;20103;-74
2021/03/08 00:22:28;;;;;;;30.27;19.00;;;;;;;4.25;100.00;101369.88;4902191;29;20375;-73
2021/03/08 00:25:20;;;;;;;30.02;18.30;;;;;;;4.27;100.00;101364.72;4901133;29;20032;-74
2021/03/08 00:28:06;;;;;;;30.83;19.15;;;;;;;3.97;100.00;101365.00;4902002;29;20036;-73
2021/03/08 00:30:51;;;;;;;28.95;18.92;;;;;;;4.52;100.00;101359.97;4887941;29;20028;-74
2021/03/08 00:33:37;;;;;;;35.38;20.13;;;;;;;4.48;100.00;101358.19;4901960;29;20028;-73
2021/03/08 00:36:23;;;;;;;34.40;20.25;;;;;;;4.56;100.00;101345.31;4902596;29;20036;-74
2021/03/08 00:39:09;;;;;;;34.20;19.60;;;;;;;4.45;100.00;101345.16;4901497;29;20180;-73
2021/03/08 00:41:54;;;;;;;30.45;20.08;;;;;;;4.34;100.00;101344.09;4900707;29;20036;-74
2021/03/08 00:44:40;;;;;;;31.67;19.08;;;;;;;4.12;100.00;101343.69;4902413;29;20096;-73
2021/03/08 00:47:26;;;;;;;27.73;17.48;;;;;;;4.27;100.00;101336.19;4901987;29;20029;-74
2021/03/08 00:50:21;;;;;;;29.70;18.90;;;;;;;4.12;100.00;101336.78;4901251;29;20040;-74
2021/03/08 00:53:08;;;;;;;26.08;17.38;;;;;;;4.35;100.00;101342.38;4888702;29;20040;-74
2021/03/08 00:55:53;;;;;;;30.13;17.42;;;;;;;4.37;100.00;101332.88;4888241;29;20123;-73
2021/03/08 00:58:39;;;;;;;30.77;16.80;;;;;;;3.99;100.00;101324.41;4887988;29;20051;-74
2021/03/08 01:01:25;;;;;;;27.05;17.23;;;;;;;3.99;100.00;101327.00;4900803;29;20136;-74
2021/03/08 01:04:11;;;;;;;28.27;17.88;;;;;;;3.88;100.00;101318.19;4901020;29;20139;-73
2021/03/08 01:06:57;;;;;;;26.73;16.83;;;;;;;4.03;100.00;101322.78;4887901;29;20048;-73
2021/03/08 01:09:43;;;;;;;25.05;17.02;;;;;;;4.23;100.00;101324.84;4900796;29;20036;-74
2021/03/08 01:12:28;;;;;;;27.42;17.60;;;;;;;3.85;100.00;101320.72;4900374;29;20075;-74
2021/03/08 01:15:15;;;;;;;26.20;16.45;;;;;;;3.87;100.00;101320.75;4902956;29;20037;-73
2021/03/08 01:18:00;;;;;;;26.85;16.63;;;;;;;3.95;100.00;101313.97;4887802;29;20083;-73
2021/03/08 01:20:47;;;;;;;24.48;15.88;;;;;;;3.81;100.00;101310.25;4900860;29;20028;-73
2021/03/08 01:23:33;;;;;;;25.15;15.57;;;;;;;3.87;100.00;101300.00;4900713;29;20063;-73
2021/03/08 01:26:19;;;;;;;25.08;15.55;;;;;;;3.80;100.00;101305.91;4888429;29;20020;-73
2021/03/08 01:29:04;;;;;;;22.85;15.23;;;;;;;3.74;100.00;101303.22;4887546;29;20021;-73
2021/03/08 01:31:50;;;;;;;25.85;14.95;;;;;;;3.49;100.00;101303.56;4888504;29;20361;-73
2021/03/08 01:34:36;;;;;;;26.10;14.90;;;;;;;3.51;100.00;101296.72;4900569;29;20033;-73
2021/03/08 01:37:22;;;;;;;25.02;16.25;;;;;;;3.61;100.00;101294.31;4900600;29;20074;-74
2021/03/08 01:40:10;;;;;;;28.50;15.95;;;;;;;3.55;100.00;101291.63;4900265;29;20574;-74
2021/03/08 01:42:57;;;;;;;27.17;15.93;;;;;;;3.04;100.00;101290.53;4899896;29;20123;-73
2021/03/08 01:45:43;;;;;;;27.48;17.13;;;;;;;3.11;100.00;101297.59;4900455;29;20036;-73
2021/03/08 01:48:29;;;;;;;29.00;17.30;;;;;;;3.39;100.00;101287.00;4887094;29;20116;-73
2021/03/08 01:51:15;;;;;;;25.92;16.02;;;;;;;3.01;100.00;101284.44;4900325;29;20116;-73
2021/03/08 01:54:00;;;;;;;23.85;15.30;;;;;;;3.17;100.00;101283.94;4899550;29;20473;-73
2021/03/08 01:56:46;;;;;;;26.85;16.13;;;;;;;3.45;100.00;101288.78;4900191;29;20119;-73
2021/03/08 01:59:32;;;;;;;25.17;16.13;;;;;;;3.51;100.00;101283.75;4899452;29;20399;-73
2021/03/08 02:02:19;;;;;;;25.85;15.77;;;;;;;3.21;100.00;101280.53;4899852;29;20044;-73
2021/03/08 02:05:08;;;;;;;26.95;16.13;;;;;;;3.14;100.00;101281.25;4899639;29;20119;-74
2021/03/08 02:07:54;;;;;;;24.08;15.80;;;;;;;2.25;100.00;101276.59;4904603;29;20028;-73
2021/03/08 02:10:42;;;;;;;26.52;16.83;;;;;;;2.34;100.00;101289.78;4893473;29;20037;-74
2021/03/08 02:13:50;;;;;;;26.15;15.75;;;;;;;2.96;100.00;101279.16;4901106;29;20419;-74
2021/03/08 02:16:57;;;;;;;28.00;16.63;;;;;;;2.80;100.00;101292.59;4900849;29;20024;-74
2021/03/08 02:20:05;;;;;;;25.77;16.00;;;;;;;2.90;100.00;101286.75;4903278;29;20052;-73
2021/03/08 02:22:53;;;;;;;28.67;16.30;;;;;;;2.91;100.00;101292.81;4887205;29;20119;-73
2021/03/08 02:26:00;;;;;;;26.38;15.95;;;;;;;2.57;100.00;101291.16;4900425;29;20036;-73
2021/03/08 02:28:46;;;;;;;30.88;16.77;;;;;;;2.63;100.00;101296.50;4898772;29;20043;-74
2021/03/08 02:31:33;;;;;;;25.77;16.42;;;;;;;2.70;100.00;101295.78;4899108;29;20036;-73
2021/03/08 02:34:24;;;;;;;29.10;16.27;;;;;;;2.97;100.00;101288.66;4899126;29;20032;-73
2021/03/08 02:37:16;;;;;;;29.60;16.52;;;;;;;2.60;100.00;101293.84;4886264;29;20056;-73
2021/03/08 02:40:11;;;;;;;27.67;17.40;;;;;;;2.86;100.00;101297.88;4898887;29;20024;-73
2021/03/08 02:42:58;;;;;;;27.63;16.85;;;;;;;3.04;100.00;101306.06;4898901;29;20123;-73
2021/03/08 02:45:47;;;;;;;26.60;16.42;;;;;;;3.20;100.00;101299.50;4885403;29;20028;-73
2021/03/08 02:48:36;;;;;;;24.33;15.30;;;;;;;3.11;100.00;101294.13;4898624;29;20365;-73
2021/03/08 02:51:27;;;;;;;24.27;15.77;;;;;;;3.08;100.00;101294.94;4899028;29;20051;-72
2021/03/08 02:54:17;;;;;;;29.52;16.25;;;;;;;2.98;100.00;101299.88;4899044;29;20374;-73
2021/03/08 02:57:06;;;;;;;24.92;15.68;;;;;;;3.31;100.00;101291.13;4900477;29;20340;-73
2021/03/08 02:59:56;;;;;;;23.63;15.20;;;;;;;3.33;100.00;101291.13;4884621;29;20020;-74
2021/03/08 03:02:43;;;;;;;26.65;16.23;;;;;;;3.14;100.00;101291.63;4898911;29;20057;-73
2021/03/08 03:05:29;;;;;;;26.08;16.08;;;;;;;3.24;100.00;101296.13;4898326;29;20028;-73
2021/03/08 03:08:16;;;;;;;25.05;15.57;;;;;;;3.00;100.00;101304.25;4898773;29;20033;-73
2021/03/08 03:11:03;;;;;;;24.40;15.57;;;;;;;3.03;100.00;101298.25;4897855;29;20042;-74
2021/03/08 03:13:52;;;;;;;26.70;15.75;;;;;;;3.07;100.00;101303.56;4885883;29;20362;-74
2021/03/08 03:16:41;;;;;;;26.77;14.80;;;;;;;2.96;100.00;101304.13;4898442;29;20039;-73
2021/03/08 03:19:30;;;;;;;24.33;15.75;;;;;;;2.40;100.00;101302.84;4898153;29;20087;-73
2021/03/08 03:22:22;;;;;;;28.42;15.88;;;;;;;2.39;100.00;101288.16;4900137;29;20032;-73
2021/03/08 03:25:09;;;;;;;26.23;16.73;;;;;;;2.69;100.00;101288.88;4898096;29;20036;-73
2021/03/08 03:27:56;;;;;;;31.35;17.02;;;;;;;2.52;100.00;101292.78;4898384;29;20029;-74
2021/03/08 03:30:44;;;;;;;28.17;16.42;;;;;;;2.80;100.00;101284.81;4885284;29;20450;-73
2021/03/08 03:33:30;;;;;;;29.23;17.10;;;;;;;2.78;100.00;101283.91;4899446;29;20480;-74
2021/03/08 03:36:17;;;;;;;29.92;16.55;;;;;;;2.61;100.00;101274.03;4885161;29;20028;-73
2021/03/08 03:39:09;;;;;;;31.58;18.55;;;;;;;2.34;100.00;101268.19;4886068;29;20039;-74
2021/03/08 03:41:55;;;;;;;33.45;18.02;;;;;;;2.47;100.00;101268.53;4898234;29;20476;-74
2021/03/08 03:44:41;;;;;;;32.08;19.15;;;;;;;2.54;100.00;101269.53;4898474;29;20036;-73
2021/03/08 03:47:27;;;;;;;29.45;18.02;;;;;;;2.78;100.00;101273.56;4898230;29;20039;-74
2021/03/08 03:50:18;;;;;;;28.83;16.98;;;;;;;3.04;100.00;101264.66;4898836;29;20028;-73
2021/03/08 03:53:05;;;;;;;30.50;17.60;;;;;;;3.14;100.00;101266.59;4888987;29;20055;-73
2021/03/08 03:55:52;;;;;;;29.83;18.40;;;;;;;3.09;100.00;101259.59;4901952;29;20469;-74
2021/03/08 03:58:56;;;;;;;29.30;16.58;;;;;;;3.29;100.00;101250.50;4901914;29;20075;-73
2021/03/08 04:01:53;;;;;;;31.55;18.27;;;;;;;3.36;100.00;101258.44;4901618;29;20038;-72
2021/03/08 04:04:54;;;;;;;29.15;18.38;;;;;;;2.93;100.00;101263.53;4902512;29;20043;-73
2021/03/08 04:07:42;;;;;;;28.25;16.92;;;;;;;3.06;100.00;101251.75;4901941;29;20043;-73
2021/03/08 04:10:29;;;;;;;28.98;18.35;;;;;;;3.29;100.00;101255.66;4889889;29;20028;-73
2021/03/08 04:13:16;;;;;;;30.25;18.23;;;;;;;3.05;100.00;101265.53;4889217;29;20462;-74
2021/03/08 04:16:03;;;;;;;32.88;17.60;;;;;;;2.64;100.00;101259.44;4901028;29;20080;-73
2021/03/08 04:18:52;;;;;;;30.67;18.95;;;;;;;2.76;100.00;101271.78;4903136;29;20115;-74
2021/03/08 04:21:40;;;;;;;30.50;18.65;;;;;;;2.85;100.00;101278.03;4901753;29;20051;-74
2021/03/08 04:24:27;;;;;;;32.22;18.73;;;;;;;2.85;100.00;101267.69;4902221;29;20060;-73
2021/03/08 04:27:14;;;;;;;28.83;17.83;;;;;;;2.64;100.00;101262.03;4901629;29;20099;-74
2021/03/08 04:30:01;;;;;;;31.67;18.92;;;;;;;2.67;100.00;101264.69;4900744;29;20218;-73
2021/03/08 04:32:50;;;;;;;31.90;18.55;;;;;;;2.73;100.00;101262.22;4888971;29;20377;-73
2021/03/08 04:35:37;;;;;;;29.88;19.10;;;;;;;2.87;100.00;101262.53;4900765;29;20518;-73
2021/03/08 04:38:24;;;;;;;30.35;18.10;;;;;;;2.95;100.00;101245.47;4902027;29;20038;-73
2021/03/08 04:41:11;;;;;;;31.23;19.10;;;;;;;2.83;100.00;101248.69;4900907;29;20107;-73
2021/03/08 04:43:58;;;;;;;31.00;19.02;;;;;;;2.57;100.00;101249.78;4902120;29;20028;-74
2021/03/08 04:46:44;;;;;;;30.35;18.83;;;;;;;2.57;100.00;101248.94;4902351;29;20036;-73
2021/03/08 04:49:34;;;;;;;31.52;19.63;;;;;;;2.89;100.00;101250.53;4900690;29;20033;-73
2021/03/08 04:52:21;;;;;;;34.45;19.73;;;;;;;3.17;100.00;101240.75;4900664;29;20119;-73
2021/03/08 04:55:09;;;;;;;33.67;20.25;;;;;;;2.91;100.00;101244.53;4900666;29;20462;-73
2021/03/08 04:57:55;;;;;;;36.03;20.95;;;;;;;3.05;100.00;101242.25;4902663;29;20096;-73
2021/03/08 05:00:41;;;;;;;34.30;20.20;;;;;;;3.13;100.00;101248.47;4888338;29;20032;-73
2021/03/08 05:03:28;;;;;;;39.22;20.67;;;;;;;3.29;100.00;101245.31;4899463;29;20075;-73
2021/03/08 05:06:16;;;;;;;33.67;19.80;;;;;;;3.12;100.00;101239.81;4901352;29;20108;-74
2021/03/08 05:09:02;;;;;;;33.08;20.58;;;;;;;3.23;100.00;101235.72;4888394;29;20119;-73
2021/03/08 05:11:50;;;;;;;35.10;21.15;;;;;;;3.21;100.00;101242.56;4887518;29;20067;-73
2021/03/08 05:14:39;;;;;;;32.70;19.38;;;;;;;3.09;100.00;101247.50;4902529;29;20453;-74
2021/03/08 05:17:26;;;;;;;39.30;20.40;;;;;;;2.92;100.00;101251.47;4900210;29;20028;-73
2021/03/08 05:20:15;;;;;;;38.75;21.95;;;;;;;3.37;100.00;101241.16;4901036;29;20027;-73
2021/03/08 05:23:02;;;;;;;44.65;22.13;;;;;;;3.07;100.00;101244.03;4901534;29;20068;-73
2021/03/08 05:25:48;;;;;;;40.55;22.92;;;;;;;2.81;100.00;101247.75;4900291;29;20055;-74
2021/03/08 05:28:35;;;;;;;40.42;22.90;;;;;;;2.77;100.00;101247.66;4901234;29;20025;-73
2021/03/08 05:31:23;;;;;;;46.67;23.52;;;;;;;3.01;100.00;101258.56;4901315;29;20052;-73
2021/03/08 05:34:10;;;;;;;45.35;24.85;;;;;;;3.23;100.00;101247.78;4900006;29;20403;-73
2021/03/08 05:36:56;;;;;;;43.65;24.35;;;;;;;3.41;100.00;101256.78;4887126;29;20372;-73
2021/03/08 05:39:43;;;;;;;42.53;24.08;;;;;;;3.34;100.00;101247.16;4899617;29;20111;-73
2021/03/08 05:42:34;;;;;;;44.33;24.38;;;;;;;3.39;100.00;101250.72;4901159;29;20096;-74
2021/03/08 05:45:26;;;;;;;44.05;24.55;;;;;;;3.18;100.00;101257.19;4901126;29;20339;-74
2021/03/08 05:48:12;;;;;;;40.22;22.38;;;;;;;3.17;100.00;101261.47;4905410;29;20033;-73
2021/03/08 05:50:57;;;;;;;37.25;22.90;;;;;;;3.48;100.00;101261.25;4904422;29;20048;-74
2021/03/08 05:54:01;;;;;;;41.78;23.92;;;;;;;3.38;100.00;101261.91;4901689;29;20092;-74
2021/03/08 05:56:56;;;;;;;40.53;23.35;;;;;;;3.57;100.00;101268.31;4902607;29;20055;-73
2021/03/08 06:00:06;;;;;;;38.13;22.45;;;;;;;3.40;100.00;101268.00;4902232;29;20031;-73
2021/03/08 06:02:55;;;;;;;42.70;24.63;;;;;;;3.39;100.00;101263.69;4900368;29;20063;-75
2021/03/08 06:06:05;;;;;;;47.72;22.63;;;;;;;3.45;100.00;101263.78;4900539;29;20042;-73
2021/03/08 06:09:22;;;;;;;40.88;22.90;;;;;;;3.33;100.00;101263.53;4887307;29;20032;-73
2021/03/08 06:12:17;;;;;;;39.97;21.95;;;;;;;3.84;100.00;101261.97;4887119;29;20096;-74
2021/03/08 06:15:15;;;;;;;36.47;20.77;;;;;;;3.88;100.00;101270.66;4885930;29;20355;-74
2021/03/08 06:18:11;;;;;;;43.38;23.75;;;;;;;4.24;100.00;101273.88;4886716;29;20040;-74
2021/03/08 06:20:59;;;;;;;39.47;22.85;;;;;;;4.25;100.00;101267.84;4887202;29;20028;-74
2021/03/08 06:23:45;;;;;;;48.50;24.23;;;;;;;3.46;100.00;101264.66;4886501;29;20570;-74
2021/03/08 06:26:32;;;;;;;45.78;25.52;;;;;;;3.33;100.00;101268.72;4899383;29;20032;-73
2021/03/08 06:29:18;;;;;;;46.58;26.48;;;;;;;3.31;100.00;101272.13;4898779;29;20036;-73
2021/03/08 06:32:06;;;;;;;48.42;27.02;;;;;;;3.39;100.00;101273.16;4886222;29;20040;-73
2021/03/08 06:34:51;;;;;;;44.13;26.13;;;;;;;3.52;100.00;101276.03;4900090;29;20092;-73
2021/03/08 06:37:38;;;;;;;47.35;26.63;;;;;;;3.97;100.00;101276.88;4899687;29;20048;-74
2021/03/08 06:40:24;;;;;;;40.22;24.50;;;;;;;3.78;100.00;101277.38;4898890;29;20107;-74
2021/03/08 06:43:09;;;;;;;40.15;22.15;;;;;;;3.37;100.00;101285.19;4886487;29;20175;-72
2021/03/08 06:45:56;;;;;;;43.05;22.02;;;;;;;3.24;100.00;101283.19;4886432;29;20111;-73
2021/03/08 06:48:43;;;;;;;43.38;23.33;;;;;;;3.93;100.00;101282.84;4886204;29;20036;-74
2021/03/08 06:51:29;;;;;;;47.20;24.13;;;;;;;4.33;100.00;101277.50;4885245;29;20462;-73
2021/03/08 06:54:17;;;;;;;51.90;23.92;;;;;;;4.56;100.00;101277.88;4886210;29;20043;-75
2021/03/08 06:57:21;;;;;;;37.58;20.45;;;;;;;4.83;100.00;101278.28;4898737;29;20067;-74
2021/03/08 07:00:12;;;;;;;37.55;21.52;;;;;;;5.18;100.00;101283.09;4886241;29;20099;-74
2021/03/08 07:02:58;;;;;;;37.47;20.73;;;;;;;5.16;100.00;101286.53;4885513;29;20071;-73
2021/03/08 07:05:44;;;;;;;39.17;23.23;;;;;;;4.87;100.00;101293.06;4885591;29;20033;-74
2021/03/08 07:08:30;;;;;;;38.70;21.50;;;;;;;5.50;100.00;101285.25;4898635;29;20138;-74
2021/03/08 07:11:22;;;;;;;34.03;20.25;;;;;;;5.29;100.00;101291.91;4898159;29;20394;-73
2021/03/08 07:14:18;;;;;;;40.67;22.17;;;;;;;5.07;100.00;101289.88;4886124;29;20028;-73
2021/03/08 07:17:28;;;;;;;37.20;22.55;;;;;;;5.43;100.00;101301.59;4898273;29;20047;-74
2021/03/08 07:20:16;;;;;;;42.42;22.88;;;;;;;5.38;100.00;101295.47;4899518;29;20502;-73
2021/03/08 07:23:02;;;;;;;35.75;20.52;;;;;;;5.04;100.00;101297.66;4903752;29;20036;-73
2021/03/08 07:25:48;;;;;;;32.72;19.60;;;;;;;5.21;100.00;101292.66;4903804;29;20041;-74
2021/03/08 07:28:33;;;;;;;30.45;19.00;;;;;;;5.16;100.00;101299.53;4890321;29;20037;-73
2021/03/08 07:31:39;;;;;;;31.42;18.75;;;;;;;5.84;100.00;101296.06;4898218;29;20028;-73
2021/03/08 07:34:24;;;;;;;30.60;19.13;;;;;;;5.33;100.00;101298.91;4897472;29;20116;-74
2021/03/08 07:37:10;;;;;;;54.03;21.35;;;;;;;5.76;100.00;101289.00;4897886;29;20029;-74
2021/03/08 07:39:56;;;;;;;28.73;17.65;;;;;;;6.26;100.00;101290.44;4885264;29;20075;-74
2021/03/08 07:42:42;;;;;;;27.67;17.38;;;;;;;5.93;100.00;101284.88;4899375;29;20101;-73
2021/03/08 07:45:45;;;;;;;29.20;18.27;;;;;;;6.64;100.00;101287.28;4898988;29;20033;-74
2021/03/08 07:48:31;;;;;;;32.30;18.52;;;;;;;6.43;100.00;101278.41;4898151;29;20025;-74
2021/03/08 07:51:16;;;;;;;30.70;19.50;;;;;;;6.54;100.00;101281.97;4897993;29;20040;-73
2021/03/08 07:54:06;;;;;;;28.55;17.48;;;;;;;7.04;100.00;101267.56;4899129;29;20376;-73
2021/03/08 07:56:53;;;;;;;27.55;17.67;;;;;;;7.30;100.00;101266.81;4885664;29;20043;-74
2021/03/08 07:59:39;;;;;;;26.52;18.67;;;;;;;6.68;100.00;101270.81;4897625;29;20020;-73
2021/03/08 08:02:25;;;;;;;29.02;17.40;;;;;;;6.57;100.00;101277.66;4884670;29;20073;-74
2021/03/08 08:05:11;;;;;;;32.25;19.50;;;;;;;7.02;100.00;101262.34;4897289;29;20039;-73
2021/03/08 08:07:59;;;;;;;26.90;18.35;;;;;;;7.45;100.00;101264.28;4897392;29;20028;-73
2021/03/08 08:10:45;;;;;;;31.38;18.95;;;;;;;7.24;100.00;101251.13;4899093;29;20575;-73
2021/03/08 08:13:39;;;;;;;30.92;19.25;;;;;;;7.60;100.00;101256.50;4885095;29;20351;-74
2021/03/08 08:16:30;;;;;;;25.98;17.75;;;;;;;7.10;100.00;101252.81;4897542;29;20029;-74
2021/03/08 08:19:20;;;;;;;25.73;17.77;;;;;;;7.86;100.00;101254.84;4897653;29;20433;-74
2021/03/08 08:22:13;;;;;;;28.45;17.73;;;;;;;8.25;100.00;101252.31;4885275;29;20032;-75
2021/03/08 08:25:02;;;;;;;27.70;17.58;;;;;;;8.45;100.00;101244.47;4885703;29;20043;-74
2021/03/08 08:27:48;;;;;;;30.73;19.42;;;;;;;8.38;100.00;101237.50;4897438;29;20450;-74
2021/03/08 08:30:34;;;;;;;27.33;17.98;;;;;;;8.51;100.00;101239.22;4884969;29;20033;-74
2021/03/08 08:33:28;;;;;;;26.95;16.90;;;;;;;8.08;100.00;101224.44;4897914;29;20115;-73
2021/03/08 08:36:17;;;;;;;26.27;16.27;;;;;;;9.07;98.91;101224.31;4898288;29;20075;-75
2021/03/08 08:39:04;;;;;;;24.98;15.93;;;;;;;9.49;95.72;101221.53;4901047;29;20084;-73
2021/03/08 08:42:16;;;;;;;23.30;16.35;;;;;;;9.11;95.36;101233.88;4888361;29;20039;-74
2021/03/08 08:45:31;;;;;;;23.88;16.55;;;;;;;9.81;92.24;101232.69;4902061;29;20028;-75
2021/03/08 08:48:18;;;;;;;25.20;16.73;;;;;;;9.58;94.68;101237.16;4887846;29;20029;-74
2021/03/08 08:51:04;;;;;;;26.55;16.40;;;;;;;8.67;93.14;101231.38;4900589;29;20092;-74
2021/03/08 08:53:50;;;;;;;26.40;16.35;;;;;;;8.30;98.06;101228.81;4901388;29;20036;-74
2021/03/08 08:56:48;;;;;;;23.35;16.67;;;;;;;9.00;94.66;101233.91;4888134;29;20092;-75
2021/03/08 08:59:36;;;;;;;27.25;16.92;;;;;;;9.46;93.38;101226.78;4901289;29;20033;-74
2021/03/08 09:02:30;;;;;;;28.60;18.08;;;;;;;9.96;89.46;101229.94;4901657;29;20080;-74
2021/03/08 09:05:37;;;;;;;24.48;16.38;;;;;;;9.56;88.81;101224.09;4900893;29;20461;-74
2021/03/08 09:08:24;;;;;;;29.30;16.75;;;;;;;9.99;90.41;101224.69;4901737;29;20054;-74
2021/03/08 09:11:50;;;;;;;25.63;17.17;;;;;;;9.67;89.97;101218.81;4887855;29;20036;-75
2021/03/08 09:14:52;;;;;;;28.95;17.23;;;;;;;10.64;81.40;101219.81;4901136;29;20457;-74
2021/03/08 09:17:42;;;;;;;25.50;17.55;;;;;;;10.79;79.38;101203.94;4887346;29;20363;-74
2021/03/08 09:20:30;;;;;;;27.55;17.88;;;;;;;11.01;78.57;101210.66;4887021;29;20056;-74
2021/03/08 09:23:23;;;;;;;25.17;17.15;;;;;;;10.86;78.63;101205.63;4900768;29;20036;-74
2021/03/08 09:26:09;;;;;;;28.25;17.65;;;;;;;10.95;79.82;101205.50;4900651;29;20433;-74
2021/03/08 09:28:55;;;;;;;28.13;18.85;;;;;;;11.43;76.80;101204.91;4887886;29;20355;-73
2021/03/08 09:31:41;;;;;;;27.13;18.58;;;;;;;11.18;75.71;101211.34;4899978;29;20043;-74
2021/03/08 09:34:31;;;;;;;23.75;16.75;;;;;;;11.23;74.18;101203.41;4901263;29;20037;-75
2021/03/08 09:37:17;;;;;;;25.92;16.15;;;;;;;10.98;73.93;101205.47;4900116;29;20060;-75
2021/03/08 09:40:05;;;;;;;21.48;15.73;;;;;;;10.96;74.87;101203.72;4900361;29;20031;-74
2021/03/08 09:42:52;;;;;;;23.15;16.38;;;;;;;11.14;75.98;101193.94;4899951;29;20028;-74
2021/03/08 09:45:40;;;;;;;21.30;14.75;;;;;;;10.50;77.46;101192.88;4900325;29;20493;-75
2021/03/08 09:48:28;;;;;;;23.50;15.95;;;;;;;10.99;77.44;101181.00;4899597;29;20060;-75
2021/03/08 09:51:19;;;;;;;23.85;16.35;;;;;;;10.62;78.66;101174.41;4900081;29;20029;-73
2021/03/08 09:54:05;;;;;;;21.77;15.30;;;;;;;10.56;77.25;101182.31;4886846;29;20028;-74
2021/03/08 09:56:53;;;;;;;20.65;14.63;;;;;;;11.09;74.53;101190.47;4887889;29;20112;-74
2021/03/08 09:59:54;;;;;;;23.05;14.27;;;;;;;10.48;76.02;101173.69;4900451;29;20024;-75
2021/03/08 10:02:41;;;;;;;19.83;15.05;;;;;;;11.28;75.03;101176.25;4899277;29;20063;-74
2021/03/08 10:05:40;;;;;;;22.00;15.05;;;;;;;11.75;70.02;101178.22;4899347;29;20028;-74
2021/03/08 10:08:30;;;;;;;21.10;14.25;;;;;;;11.13;72.68;101176.44;4899650;29;20370;-73
2021/03/08 10:11:30;;;;;;;21.27;14.75;;;;;;;11.23;71.50;101167.56;4899270;29;20047;-74
2021/03/08 10:14:24;;;;;;;21.15;14.32;;;;;;;11.26;69.77;101157.06;4900527;29;20466;-74
2021/03/08 10:17:17;;;;;;;21.67;15.10;;;;;;;11.22;70.28;101150.13;4886269;29;20052;-74
2021/03/08 10:20:05;;;;;;;19.85;14.00;;;;;;;11.28;67.81;101163.13;4899554;29;20021;-73
2021/03/08 10:22:54;;;;;;;19.65;13.15;;;;;;;11.74;65.75;101152.88;4900113;29;20104;-75
2021/03/08 10:25:50;;;;;;;18.90;13.40;;;;;;;12.09;62.67;101159.31;4886662;29;20036;-75
2021/03/08 10:28:42;;;;;;;19.13;13.60;;;;;;;11.96;61.69;101149.91;4900737;29;20028;-73
2021/03/08 10:31:30;;;;;;;22.67;13.15;;;;;;;11.32;65.61;101148.19;4898726;29;20048;-75
2021/03/08 10:34:16;;;;;;;19.73;13.32;;;;;;;11.60;64.59;101142.59;4898652;29;20103;-74
2021/03/08 10:37:01;;;;;;;19.65;12.68;;;;;;;11.56;61.84;101133.00;4899022;29;20029;-74
2021/03/08 10:39:53;;;;;;;19.33;13.73;;;;;;;10.72;65.42;101139.34;4898819;29;20031;-76
2021/03/08 10:42:41;;;;;;;17.23;12.18;;;;;;;11.42;61.04;101134.97;4898566;29;20132;-74
2021/03/08 10:45:27;;;;;;;21.63;12.70;;;;;;;11.99;59.20;101130.59;4898950;29;20107;-73
2021/03/08 10:48:13;;;;;;;16.55;12.48;;;;;;;12.54;58.21;101131.38;4898888;29;20024;-73
2021/03/08 10:50:59;;;;;;;16.70;12.05;;;;;;;12.49;54.87;101120.03;4898632;29;20060;-74
2021/03/08 10:53:59;;;;;;;16.58;11.82;;;;;;;12.75;55.25;101123.06;4884612;29;20109;-73
2021/03/08 10:56:45;;;;;;;16.83;11.13;;;;;;;13.02;49.13;101119.91;4900393;29;20044;-74
2021/03/08 10:59:31;;;;;;;14.98;10.85;;;;;;;12.25;48.01;101102.97;4885249;29;20036;-74
2021/03/08 11:02:18;;;;;;;15.73;10.95;;;;;;;12.07;50.03;101091.94;4898889;29;20120;-76
2021/03/08 11:05:13;;;;;;;15.18;10.82;;;;;;;12.36;48.29;101090.53;4898732;29;20033;-73
2021/03/08 11:08:02;;;;;;;16.80;11.25;;;;;;;12.73;46.95;101090.66;4898264;29;20088;-75
2021/03/08 11:10:48;;;;;;;13.73;10.18;;;;;;;12.57;46.07;101086.59;4898393;29;20036;-76
2021/03/08 11:13:34;;;;;;;15.60;11.13;;;;;;;12.97;46.40;101080.53;4885239;29;20040;-74
2021/03/08 11:16:19;;;;;;;19.00;11.45;;;;;;;13.02;46.03;101086.56;4898776;29;20048;-74
2021/03/08 11:19:19;;;;;;;17.05;11.50;;;;;;;13.22;45.15;101081.72;4898231;29;20121;-75
2021/03/08 11:22:13;;;;;;;16.70;11.40;;;;;;;13.30;45.20;101085.06;4885917;29;20092;-76
2021/03/08 11:24:59;;;;;;;21.00;13.32;;;;;;;12.59;46.17;101071.69;4898345;29;20029;-75
2021/03/08 11:27:48;;;;;;;23.55;11.52;;;;;;;13.02;46.06;101073.41;4898144;29;20033;-76
2021/03/08 11:30:34;;;;;;;19.77;11.73;;;;;;;12.93;46.04;101068.31;4898481;29;20032;-75
2021/03/08 11:33:21;;;;;;;17.55;10.95;;;;;;;12.90;46.03;101057.84;4898255;29;20127;-75
2021/03/08 11:36:07;;;;;;;18.30;11.45;;;;;;;13.17;46.47;101057.28;4896995;29;20033;-75
2021/03/08 11:38:52;;;;;;;18.90;12.57;;;;;;;13.49;45.87;101046.00;4898217;29;20422;-75
2021/03/08 11:41:44;;;;;;;17.20;12.43;;;;;;;13.64;45.89;101043.88;4897887;29;20051;-76
2021/03/08 11:44:30;;;;;;;19.35;12.43;;;;;;;13.55;44.81;101032.72;4898852;29;20071;-75
2021/03/08 11:47:16;;;;;;;18.08;12.23;;;;;;;13.46;45.82;101031.16;4898401;29;20066;-74
2021/03/08 11:50:03;;;;;;;16.77;11.90;;;;;;;13.47;46.49;101022.34;4898099;29;20028;-75
2021/03/08 11:52:49;;;;;;;16.58;11.90;;;;;;;13.69;46.38;101027.94;4898874;29;20084;-74
2021/03/08 11:55:35;;;;;;;18.67;13.02;;;;;;;13.23;46.74;101030.81;4899185;29;20032;-74
2021/03/08 11:58:21;;;;;;;19.88;12.60;;;;;;;13.90;46.33;101025.63;4898279;29;20028;-75
2021/03/08 12:01:12;;;;;;;18.92;12.55;;;;;;;13.96;44.91;101024.63;4897903;29;20092;-75
2021/03/08 12:03:58;;;;;;;18.45;12.13;;;;;;;14.02;44.81;101016.53;4897831;29;20107;-75
2021/03/08 12:06:44;;;;;;;19.15;12.88;;;;;;;14.25;44.38;101008.91;4899496;29;20024;-77
2021/03/08 12:09:33;;;;;;;20.13;12.45;;;;;;;14.63;42.84;101009.53;4897232;29;20033;-76
2021/03/08 12:12:19;;;;;;;17.35;12.75;;;;;;;13.41;45.15;101001.44;4900047;29;20020;-76
2021/03/08 12:15:10;;;;;;;16.65;12.52;;;;;;;14.00;44.79;101002.56;4902075;29;20139;-74
2021/03/08 12:17:55;;;;;;;18.35;12.63;;;;;;;13.61;44.62;101000.94;4890451;29;20028;-76
2021/03/08 12:20:41;;;;;;;17.65;12.60;;;;;;;14.11;44.33;100989.97;4904190;29;20032;-74
2021/03/08 12:23:38;;;;;;;20.83;12.43;;;;;;;14.33;43.99;100993.75;4888829;29;20029;-74
2021/03/08 12:26:24;;;;;;;19.55;12.25;;;;;;;14.44;43.83;100994.31;4901493;29;20096;-75
2021/03/08 12:29:10;;;;;;;17.30;12.27;;;;;;;13.79;44.36;100987.31;4889254;29;20045;-73
2021/03/08 12:31:55;;;;;;;20.15;13.25;;;;;;;14.49;44.07;100989.75;4888308;29;20096;-75
2021/03/08 12:34:41;;;;;;;17.60;11.60;;;;;;;14.50;43.19;100981.81;4902095;29;20484;-74
2021/03/08 12:37:27;;;;;;;16.02;11.93;;;;;;;13.84;42.70;100978.41;4901548;29;20071;-76
2021/03/08 12:40:13;;;;;;;18.73;12.13;;;;;;;14.78;42.43;100971.31;4888509;29;20064;-75
2021/03/08 12:42:59;;;;;;;17.02;11.98;;;;;;;14.59;42.84;100980.69;4900950;29;20055;-75
2021/03/08 12:45:45;;;;;;;17.13;11.82;;;;;;;14.59;40.58;100972.78;4900997;29;20024;-75
2021/03/08 12:48:30;;;;;;;17.80;11.88;;;;;;;13.92;39.77;100965.91;4901050;29;20119;-75